Time;durP1;ratioP1;P1;durP2;ratioP2;P2;SDS_P1;SDS_P2;PMS_P1;PMS_P2;Temp;Humidity;BMP_temperature;BMP_pressure;BME280_temperature;BME280_humidity;BME280_pressure;Samples;Min_cycle;Max_cycle;Signal;HPM_P1;HPM_P2
2023/12/08 00:01:25;;;;;;;7.30;2.20;;;-0.10;99.90;;;;;;4994444;28;20034;-88
2023/12/08 00:03:52;;;;;;;3.60;2.25;;;-0.10;99.90;;;;;;4979793;28;20042;-87
2023/12/08 00:06:18;;;;;;;3.08;2.63;;;0.00;99.90;;;;;;4990483;28;20042;-87
2023/12/08 00:08:44;;;;;;;4.45;3.42;;;0.00;99.90;;;;;;4975794;28;20046;-87
2023/12/08 00:11:13;;;;;;;6.00;3.33;;;0.00;99.90;;;;;;4967190;28;20034;-87
2023/12/08 00:13:41;;;;;;;8.60;2.15;;;0.00;99.90;;;;;;4959233;28;20034;-87
2023/12/08 00:16:08;;;;;;;2.75;2.55;;;0.10;99.90;;;;;;4965411;28;20043;-87
2023/12/08 00:18:35;;;;;;;2.80;2.60;;;0.10;99.90;;;;;;4966454;28;20042;-87
2023/12/08 00:21:01;;;;;;;3.35;2.13;;;0.10;99.90;;;;;;4962383;28;20058;-86
2023/12/08 00:23:27;;;;;;;1.92;1.85;;;0.10;99.90;;;;;;4957929;28;20039;-87
2023/12/08 00:25:53;;;;;;;2.22;2.10;;;0.10;99.90;;;;;;4959417;28;20035;-87
2023/12/08 00:28:20;;;;;;;1.25;1.15;;;0.10;99.90;;;;;;4965912;28;20032;-87
2023/12/08 00:30:46;;;;;;;2.55;2.35;;;0.10;99.90;;;;;;4962659;28;20207;-86
2023/12/08 00:33:12;;;;;;;11.88;4.68;;;0.20;99.90;;;;;;4947016;28;20464;-87
2023/12/08 00:35:38;;;;;;;2.22;2.03;;;0.20;99.90;;;;;;4942505;28;20044;-88
2023/12/08 00:38:04;;;;;;;2.80;2.63;;;0.20;99.90;;;;;;4964883;28;20043;-88
2023/12/08 00:40:30;;;;;;;3.28;2.08;;;0.20;99.90;;;;;;4963423;28;20035;-87
2023/12/08 00:42:57;;;;;;;1.08;1.08;;;0.20;99.90;;;;;;4964245;28;20381;-87
2023/12/08 00:45:24;;;;;;;3.00;2.80;;;0.20;99.90;;;;;;4960778;28;20034;-88
2023/12/08 00:47:50;;;;;;;1.88;1.77;;;0.20;99.90;;;;;;4963362;28;20046;-90
2023/12/08 00:50:16;;;;;;;2.42;2.33;;;0.20;99.90;;;;;;4968083;28;20035;-90
2023/12/08 00:52:42;;;;;;;1.05;1.02;;;0.20;99.90;;;;;;4971440;28;20483;-87
2023/12/08 00:55:08;;;;;;;7.10;3.45;;;0.20;99.90;;;;;;4958437;28;20047;-87
2023/12/08 00:57:35;;;;;;;2.90;2.70;;;0.30;99.90;;;;;;4952233;28;20046;-92
2023/12/08 01:00:01;;;;;;;4.22;3.85;;;0.30;99.90;;;;;;4970808;28;20047;-89
2023/12/08 01:02:27;;;;;;;1.80;1.70;;;0.30;99.90;;;;;;4967662;28;20067;-88
2023/12/08 01:04:53;;;;;;;4.97;3.05;;;0.30;99.90;;;;;;4963190;28;20043;-88
2023/12/08 01:07:19;;;;;;;8.05;4.40;;;0.30;99.90;;;;;;4968206;28;20039;-88
2023/12/08 01:09:45;;;;;;;4.65;4.35;;;0.40;99.90;;;;;;4967513;28;20043;-88
2023/12/08 01:12:12;;;;;;;7.70;4.30;;;0.40;99.90;;;;;;4958277;28;20035;-88
2023/12/08 01:14:38;;;;;;;3.03;1.70;;;0.40;99.90;;;;;;4971934;28;20365;-87
2023/12/08 01:17:04;;;;;;;0.85;0.85;;;0.40;99.90;;;;;;4951536;28;20069;-88
2023/12/08 01:19:30;;;;;;;1.85;1.75;;;0.30;99.90;;;;;;4960680;28;20049;-88
2023/12/08 01:21:56;;;;;;;5.15;1.65;;;0.30;99.90;;;;;;4967065;28;20042;-88
2023/12/08 01:24:24;;;;;;;1.80;1.70;;;0.30;99.90;;;;;;4968199;28;20042;-89
2023/12/08 01:26:50;;;;;;;1.17;1.15;;;0.30;99.90;;;;;;4960088;28;20034;-90
2023/12/08 01:29:16;;;;;;;0.63;0.57;;;0.20;99.90;;;;;;4929569;28;20042;-87
2023/12/08 01:31:43;;;;;;;3.10;2.25;;;0.20;99.90;;;;;;4964954;28;20038;-89
2023/12/08 01:34:09;;;;;;;1.02;1.02;;;0.20;99.90;;;;;;4968655;28;20045;-89
2023/12/08 01:36:35;;;;;;;2.20;2.08;;;0.20;99.90;;;;;;4947903;28;20046;-88
2023/12/08 01:39:01;;;;;;;2.88;1.67;;;0.20;99.90;;;;;;4943856;28;20055;-87
2023/12/08 01:41:27;;;;;;;4.47;4.07;;;0.20;99.90;;;;;;4953260;28;20465;-88
2023/12/08 01:43:54;;;;;;;6.88;3.05;;;0.30;99.90;;;;;;4951525;28;20039;-88
2023/12/08 01:46:21;;;;;;;3.63;3.25;;;0.30;99.90;;;;;;4969003;28;20380;-87
2023/12/08 01:48:48;;;;;;;2.38;2.20;;;0.30;99.90;;;;;;4947479;28;20042;-88
2023/12/08 01:51:16;;;;;;;8.07;4.18;;;0.40;99.90;;;;;;4969345;28;20389;-87
2023/12/08 01:53:43;;;;;;;4.60;1.35;;;0.40;99.90;;;;;;4969990;28;20381;-88
2023/12/08 01:56:11;;;;;;;1.17;0.90;;;0.40;99.90;;;;;;4957985;28;20065;-88
2023/12/08 01:58:39;;;;;;;1.48;1.40;;;0.40;99.90;;;;;;4970742;28;20038;-88
2023/12/08 02:01:06;;;;;;;2.97;2.13;;;0.40;99.90;;;;;;4966129;28;20390;-88
2023/12/08 02:03:35;;;;;;;1.33;1.23;;;0.40;99.90;;;;;;4968635;28;20054;-88
2023/12/08 02:06:02;;;;;;;4.32;2.30;;;0.40;99.90;;;;;;4969121;28;20034;-87
2023/12/08 02:08:29;;;;;;;2.17;2.05;;;0.40;99.90;;;;;;4958245;28;20049;-87
2023/12/08 02:10:55;;;;;;;3.15;2.83;;;0.50;99.90;;;;;;4957397;28;20038;-87
2023/12/08 02:13:22;;;;;;;1.65;1.55;;;0.40;99.90;;;;;;4979487;28;20023;-87
2023/12/08 02:15:57;;;;;;;11.27;3.20;;;0.50;99.90;;;;;;4990462;28;20039;-88
2023/12/08 02:18:24;;;;;;;0.32;0.32;;;0.40;99.90;;;;;;4988555;28;20059;-88
2023/12/08 02:20:50;;;;;;;5.97;2.15;;;0.40;99.90;;;;;;4974317;28;20250;-88
2023/12/08 02:23:17;;;;;;;3.67;2.15;;;0.40;99.90;;;;;;4966921;28;20535;-88
2023/12/08 02:25:44;;;;;;;1.85;1.75;;;0.40;99.90;;;;;;4966435;28;20062;-88
2023/12/08 02:28:10;;;;;;;1.58;1.48;;;0.50;99.90;;;;;;4970882;28;20387;-87
2023/12/08 02:30:37;;;;;;;0.90;0.88;;;0.40;99.90;;;;;;4963182;28;20046;-88
2023/12/08 02:33:14;;;;;;;7.70;1.67;;;0.40;99.90;;;;;;4965470;28;20042;-87
2023/12/08 02:35:43;;;;;;;1.52;1.45;;;0.40;99.90;;;;;;4968412;28;20039;-88
2023/12/08 02:38:12;;;;;;;2.15;1.95;;;0.40;99.90;;;;;;4970337;28;20038;-87
2023/12/08 02:40:39;;;;;;;2.05;1.38;;;0.40;99.90;;;;;;4967954;28;20086;-88
2023/12/08 02:43:05;;;;;;;1.00;1.00;;;0.50;99.90;;;;;;4964884;28;20035;-88
2023/12/08 02:45:32;;;;;;;5.55;2.55;;;0.50;99.90;;;;;;4964468;28;20392;-87
2023/12/08 02:47:58;;;;;;;3.42;1.83;;;0.50;99.90;;;;;;4968130;28;20030;-87
2023/12/08 02:50:24;;;;;;;2.05;1.63;;;0.50;99.90;;;;;;4965892;28;20400;-87
2023/12/08 02:52:50;;;;;;;2.38;2.20;;;0.50;99.90;;;;;;4969252;28;20041;-87
2023/12/08 02:55:17;;;;;;;2.88;2.22;;;0.50;99.90;;;;;;4966502;28;20042;-88
2023/12/08 02:57:43;;;;;;;5.38;3.03;;;0.50;99.90;;;;;;4951298;28;20038;-88
2023/12/08 03:00:09;;;;;;;1.95;1.85;;;0.50;99.90;;;;;;4966742;28;20043;-87
2023/12/08 03:02:36;;;;;;;2.97;2.67;;;0.50;99.90;;;;;;4955798;28;20421;-87
2023/12/08 03:05:03;;;;;;;5.05;4.57;;;0.50;99.90;;;;;;4952005;28;20043;-88
2023/12/08 03:07:29;;;;;;;1.77;1.67;;;0.50;99.90;;;;;;4954833;28;20066;-88
2023/12/08 03:09:56;;;;;;;2.75;1.75;;;0.50;99.90;;;;;;4953015;28;20043;-87
2023/12/08 03:12:22;;;;;;;2.65;2.45;;;0.50;99.90;;;;;;4964398;28;20046;-85
2023/12/08 03:14:48;;;;;;;1.60;1.48;;;0.50;99.90;;;;;;4944719;28;20061;-87
2023/12/08 03:17:15;;;;;;;1.70;1.60;;;0.50;99.90;;;;;;4965576;28;20461;-87
2023/12/08 03:19:41;;;;;;;1.80;1.45;;;0.50;99.90;;;;;;4961959;28;20409;-88
2023/12/08 03:22:08;;;;;;;5.15;1.48;;;0.50;99.90;;;;;;4962581;28;20043;-88
2023/12/08 03:24:34;;;;;;;1.38;1.27;;;0.50;99.90;;;;;;4965313;28;20023;-88
2023/12/08 03:27:00;;;;;;;3.67;3.38;;;0.50;99.90;;;;;;4964355;28;20457;-87
2023/12/08 03:29:26;;;;;;;6.40;2.70;;;0.50;99.90;;;;;;4968360;28;20046;-87
2023/12/08 03:31:52;;;;;;;3.60;2.50;;;0.60;99.90;;;;;;4949744;28;20043;-86
2023/12/08 03:34:18;;;;;;;4.28;3.95;;;0.60;99.90;;;;;;4968730;28;20043;-87
2023/12/08 03:36:45;;;;;;;4.97;2.25;;;0.60;99.90;;;;;;4965662;28;20031;-85
2023/12/08 03:39:11;;;;;;;2.35;1.70;;;0.60;99.90;;;;;;4951848;28;20043;-87
2023/12/08 03:41:37;;;;;;;1.60;1.50;;;0.60;99.90;;;;;;4965344;28;20042;-88
2023/12/08 03:44:03;;;;;;;4.00;1.50;;;0.60;99.90;;;;;;4969762;28;20047;-89
2023/12/08 03:46:29;;;;;;;2.22;2.03;;;0.60;99.90;;;;;;4966170;28;20511;-89
2023/12/08 03:48:56;;;;;;;0.95;0.95;;;0.60;99.90;;;;;;4964319;28;20035;-89
2023/12/08 03:51:22;;;;;;;1.38;1.27;;;0.60;99.90;;;;;;4972828;28;20391;-89
2023/12/08 03:53:49;;;;;;;0.52;0.52;;;0.60;99.90;;;;;;4965190;28;20035;-89
2023/12/08 03:56:15;;;;;;;2.90;2.70;;;0.50;99.90;;;;;;4956105;28;20038;-89
2023/12/08 03:58:41;;;;;;;4.03;2.88;;;0.60;99.90;;;;;;4962654;28;20052;-90
2023/12/08 04:01:07;;;;;;;1.75;0.90;;;0.50;99.90;;;;;;4968191;28;20049;-92
2023/12/08 04:03:33;;;;;;;3.30;2.00;;;0.50;99.90;;;;;;4941352;28;20043;-94
2023/12/08 04:06:00;;;;;;;1.02;1.02;;;0.50;99.90;;;;;;4965935;28;20030;-92
2023/12/08 04:08:26;;;;;;;4.18;2.80;;;0.50;99.90;;;;;;4962780;28;20039;-91
2023/12/08 04:10:52;;;;;;;1.88;1.77;;;0.50;99.90;;;;;;4964630;28;20047;-93
2023/12/08 04:13:18;;;;;;;5.78;3.92;;;0.50;99.90;;;;;;4966478;28;20047;-91
2023/12/08 04:15:44;;;;;;;2.72;2.53;;;0.50;99.90;;;;;;4970334;28;20062;-92
2023/12/08 04:18:10;;;;;;;3.75;2.33;;;0.50;99.90;;;;;;4972466;28;20035;-92
2023/12/08 04:20:36;;;;;;;7.90;1.80;;;0.60;99.90;;;;;;4973122;28;20050;-91
2023/12/08 04:23:05;;;;;;;1.95;1.50;;;0.60;99.90;;;;;;4980513;28;20030;-90
2023/12/08 04:25:31;;;;;;;1.10;1.08;;;0.60;99.90;;;;;;4988142;28;20038;-92
2023/12/08 04:27:57;;;;;;;7.90;4.40;;;0.60;99.90;;;;;;4982273;28;20023;-90
2023/12/08 04:30:23;;;;;;;5.35;4.47;;;0.60;99.90;;;;;;4972909;28;20047;-92
2023/12/08 04:32:49;;;;;;;1.50;1.40;;;0.70;99.90;;;;;;4969100;28;20039;-92
2023/12/08 04:35:15;;;;;;;5.05;3.70;;;0.70;99.90;;;;;;4972791;28;20031;-91
2023/12/08 04:37:41;;;;;;;4.80;3.53;;;0.70;99.90;;;;;;4985303;28;20039;-89
2023/12/08 04:40:08;;;;;;;1.83;1.73;;;0.70;99.90;;;;;;4977176;28;20059;-89
2023/12/08 04:42:36;;;;;;;9.10;3.47;;;0.80;99.90;;;;;;4969519;28;20042;-88
2023/12/08 04:45:05;;;;;;;4.95;1.55;;;0.80;99.90;;;;;;4976056;28;20050;-87
2023/12/08 04:47:31;;;;;;;2.13;2.03;;;0.80;99.90;;;;;;4985108;28;20051;-86
2023/12/08 04:49:59;;;;;;;1.25;1.25;;;0.80;99.90;;;;;;4971428;28;20035;-86
2023/12/08 04:52:25;;;;;;;1.38;1.27;;;0.80;99.90;;;;;;4957778;28;20416;-84
2023/12/08 04:54:51;;;;;;;1.65;1.55;;;0.80;99.90;;;;;;4954324;28;20039;-83
2023/12/08 04:57:17;;;;;;;2.05;1.85;;;0.70;99.90;;;;;;4969766;28;20054;-83
2023/12/08 04:59:43;;;;;;;1.73;1.63;;;0.70;99.90;;;;;;4971666;28;20038;-83
2023/12/08 05:02:09;;;;;;;3.58;1.98;;;0.70;99.90;;;;;;4968834;28;20031;-85
2023/12/08 05:04:35;;;;;;;0.93;0.93;;;0.70;99.90;;;;;;4970550;28;20027;-84
2023/12/08 05:07:02;;;;;;;2.70;2.05;;;0.70;99.90;;;;;;4967093;28;20038;-83
2023/12/08 05:09:28;;;;;;;3.95;2.05;;;0.70;99.90;;;;;;4968815;28;20038;-84
2023/12/08 05:11:54;;;;;;;2.13;2.00;;;0.70;99.90;;;;;;4964104;28;20031;-83
2023/12/08 05:14:21;;;;;;;2.42;2.22;;;0.70;99.90;;;;;;4966081;28;20062;-89
2023/12/08 05:16:47;;;;;;;2.30;2.17;;;0.70;99.90;;;;;;4968152;28;20491;-87
2023/12/08 05:19:13;;;;;;;1.48;1.38;;;0.70;99.90;;;;;;4967652;28;20039;-88
2023/12/08 05:21:39;;;;;;;19.88;2.65;;;0.70;99.90;;;;;;4967241;28;20045;-89
2023/12/08 05:24:06;;;;;;;3.47;3.20;;;0.70;99.90;;;;;;4965465;28;20042;-87
2023/12/08 05:26:32;;;;;;;6.63;3.75;;;0.60;99.90;;;;;;4961889;28;20023;-86
2023/12/08 05:28:58;;;;;;;2.42;2.22;;;0.70;99.90;;;;;;4967467;28;20029;-87
2023/12/08 05:31:24;;;;;;;3.05;2.42;;;0.60;99.90;;;;;;4966214;28;20038;-89
2023/12/08 05:33:50;;;;;;;2.58;2.38;;;0.60;99.90;;;;;;4971069;28;20488;-85
2023/12/08 05:36:17;;;;;;;2.17;2.08;;;0.60;99.90;;;;;;4967025;28;20038;-88
2023/12/08 05:38:43;;;;;;;3.00;2.65;;;0.60;99.90;;;;;;4966140;28;20038;-86
2023/12/08 05:41:09;;;;;;;3.72;3.42;;;0.60;99.90;;;;;;4968161;28;20043;-85
2023/12/08 05:43:35;;;;;;;11.68;4.68;;;0.70;99.90;;;;;;4969638;28;20047;-84
2023/12/08 05:46:02;;;;;;;1.20;1.10;;;0.70;99.90;;;;;;4963255;28;20047;-83
2023/12/08 05:48:28;;;;;;;4.88;3.45;;;0.70;99.90;;;;;;4972000;28;20038;-82
2023/12/08 05:50:55;;;;;;;3.33;3.03;;;0.70;99.90;;;;;;4970953;28;20031;-82
2023/12/08 05:53:21;;;;;;;3.70;2.35;;;0.70;99.90;;;;;;4968034;28;20370;-82
2023/12/08 05:55:47;;;;;;;1.33;1.23;;;0.70;99.90;;;;;;4962566;28;20057;-81
2023/12/08 05:58:13;;;;;;;14.38;2.58;;;0.70;99.90;;;;;;4962401;28;20045;-80
2023/12/08 06:00:41;;;;;;;5.78;3.90;;;0.70;99.90;;;;;;4966540;28;20035;-80
2023/12/08 06:03:07;;;;;;;3.70;3.45;;;0.70;99.90;;;;;;4966323;28;20031;-82
2023/12/08 06:05:33;;;;;;;1.95;1.48;;;0.70;99.90;;;;;;4966716;28;20034;-79
2023/12/08 06:07:59;;;;;;;3.90;3.47;;;0.70;99.90;;;;;;4962590;28;20326;-82
2023/12/08 06:10:25;;;;;;;2.38;2.25;;;0.70;99.90;;;;;;4965913;28;20056;-84
2023/12/08 06:12:52;;;;;;;3.40;3.13;;;0.70;99.90;;;;;;4965879;28;20031;-81
2023/12/08 06:15:18;;;;;;;1.25;1.23;;;0.60;99.90;;;;;;4964567;28;20043;-82
2023/12/08 06:17:44;;;;;;;7.22;3.38;;;0.70;99.90;;;;;;4961507;28;20031;-82
2023/12/08 06:20:11;;;;;;;1.15;1.05;;;0.60;99.90;;;;;;4966222;28;20039;-92
2023/12/08 06:22:37;;;;;;;2.30;2.10;;;0.60;99.90;;;;;;4963979;28;20046;-82
2023/12/08 06:25:04;;;;;;;1.45;1.38;;;0.60;99.90;;;;;;4971077;28;20042;-83
2023/12/08 06:27:30;;;;;;;2.65;2.55;;;0.60;99.90;;;;;;4963127;28;20031;-84
2023/12/08 06:29:56;;;;;;;1.25;1.17;;;0.60;99.90;;;;;;4955968;28;20042;-84
2023/12/08 06:32:25;;;;;;;2.10;1.75;;;0.60;99.90;;;;;;4968238;28;20369;-85
2023/12/08 06:34:51;;;;;;;3.92;2.08;;;0.70;99.90;;;;;;4965541;28;20027;-83
2023/12/08 06:37:17;;;;;;;3.20;2.42;;;0.60;99.90;;;;;;4969894;28;20377;-83
2023/12/08 06:39:44;;;;;;;5.68;4.82;;;0.70;99.90;;;;;;4964821;28;20034;-81
2023/12/08 06:42:10;;;;;;;2.65;2.05;;;0.70;99.90;;;;;;4965154;28;20031;-81
2023/12/08 06:44:36;;;;;;;2.20;2.00;;;0.70;99.90;;;;;;4966494;28;20035;-80
2023/12/08 06:47:02;;;;;;;4.13;3.22;;;0.70;99.90;;;;;;4965665;28;20050;-80
2023/12/08 06:49:29;;;;;;;2.42;2.00;;;0.70;99.90;;;;;;4966363;28;20054;-81
2023/12/08 06:51:55;;;;;;;1.00;1.00;;;0.70;99.90;;;;;;4945375;29;20091;-80
2023/12/08 06:54:21;;;;;;;2.35;2.03;;;0.70;99.90;;;;;;4956209;28;20035;-80
2023/12/08 06:56:47;;;;;;;1.67;1.58;;;0.70;99.90;;;;;;4957052;28;20039;-81
2023/12/08 06:59:14;;;;;;;2.50;2.13;;;0.70;99.90;;;;;;4958296;28;20043;-81
2023/12/08 07:01:41;;;;;;;2.50;1.90;;;0.70;99.90;;;;;;4963964;28;20047;-81
2023/12/08 07:04:07;;;;;;;4.38;3.38;;;0.80;99.90;;;;;;4971530;28;20034;-81
2023/12/08 07:06:33;;;;;;;2.38;2.17;;;0.70;99.90;;;;;;4964789;28;20404;-81
2023/12/08 07:09:00;;;;;;;5.93;3.53;;;0.80;99.90;;;;;;4949100;28;20043;-81
2023/12/08 07:11:26;;;;;;;2.80;2.60;;;0.80;99.90;;;;;;4957179;28;20042;-83
2023/12/08 07:13:53;;;;;;;2.25;1.95;;;0.80;99.90;;;;;;4961953;28;20424;-83
2023/12/08 07:16:19;;;;;;;1.73;1.63;;;0.80;99.90;;;;;;4956125;28;20043;-82
2023/12/08 07:18:45;;;;;;;5.15;2.40;;;0.80;99.90;;;;;;4963691;28;20038;-81
2023/12/08 07:21:12;;;;;;;4.47;3.95;;;0.80;99.90;;;;;;4961060;28;20492;-82
2023/12/08 07:23:38;;;;;;;30.90;4.22;;;0.90;99.90;;;;;;4962173;28;20034;-81
2023/12/08 07:26:04;;;;;;;5.53;3.95;;;0.90;99.90;;;;;;4963091;28;20031;-81
2023/12/08 07:28:30;;;;;;;2.58;1.98;;;0.90;99.90;;;;;;4967478;28;20035;-82
2023/12/08 07:30:57;;;;;;;3.60;2.17;;;1.00;99.90;;;;;;4962991;28;20046;-80
2023/12/08 07:33:24;;;;;;;8.65;4.68;;;1.00;99.90;;;;;;4942970;28;20046;-84
2023/12/08 07:35:50;;;;;;;10.13;6.40;;;1.00;99.90;;;;;;4959615;28;20062;-84
2023/12/08 07:38:16;;;;;;;6.40;5.90;;;1.10;99.90;;;;;;4967854;28;20389;-84
2023/12/08 07:40:43;;;;;;;6.15;5.65;;;1.10;99.90;;;;;;4947306;28;20044;-85
2023/12/08 07:43:09;;;;;;;8.18;6.00;;;1.10;99.90;;;;;;4962246;28;20051;-84
2023/12/08 07:45:35;;;;;;;4.80;2.33;;;1.10;99.90;;;;;;4960809;28;20468;-85
2023/12/08 07:48:01;;;;;;;2.35;2.25;;;1.20;99.90;;;;;;4964435;28;20035;-84
2023/12/08 07:50:27;;;;;;;3.65;3.45;;;1.20;99.90;;;;;;4965622;28;20035;-84
2023/12/08 07:52:54;;;;;;;7.15;4.93;;;1.20;99.90;;;;;;4961784;28;20035;-85
2023/12/08 07:55:20;;;;;;;4.70;4.25;;;1.30;99.90;;;;;;4962720;28;20039;-85
2023/12/08 07:57:46;;;;;;;3.28;3.08;;;1.30;99.90;;;;;;4961160;28;20027;-85
2023/12/08 08:00:13;;;;;;;3.40;3.13;;;1.30;99.90;;;;;;4965928;28;20393;-85
2023/12/08 08:02:39;;;;;;;2.97;2.78;;;1.40;99.90;;;;;;4965955;28;20040;-82
2023/12/08 08:05:05;;;;;;;7.82;3.45;;;1.40;99.90;;;;;;4963066;28;20120;-82
2023/12/08 08:07:31;;;;;;;2.88;1.80;;;1.50;99.90;;;;;;4966941;28;20030;-82
2023/12/08 08:09:58;;;;;;;2.25;2.15;;;1.50;99.90;;;;;;4971206;28;20034;-83
2023/12/08 08:12:24;;;;;;;12.98;2.35;;;1.50;99.90;;;;;;4969880;28;20027;-82
2023/12/08 08:14:50;;;;;;;2.22;2.03;;;1.50;99.90;;;;;;4968194;28;20039;-81
2023/12/08 08:17:17;;;;;;;1.98;1.35;;;1.60;99.90;;;;;;4966961;28;20373;-81
2023/12/08 08:19:43;;;;;;;3.78;1.02;;;1.70;99.90;;;;;;4978427;28;20119;-81
2023/12/08 08:22:09;;;;;;;2.08;1.70;;;1.70;99.90;;;;;;4976882;28;20050;-82
2023/12/08 08:24:35;;;;;;;3.35;2.80;;;1.70;99.90;;;;;;4967170;28;20039;-81
2023/12/08 08:27:02;;;;;;;1.00;0.98;;;1.70;99.90;;;;;;4961388;28;20043;-80
2023/12/08 08:29:28;;;;;;;5.00;4.60;;;1.70;99.90;;;;;;4967682;28;20053;-80
2023/12/08 08:31:54;;;;;;;3.75;2.80;;;1.80;99.90;;;;;;4969350;28;20070;-80
2023/12/08 08:34:20;;;;;;;6.32;3.00;;;1.80;99.90;;;;;;4967000;28;20034;-80
2023/12/08 08:36:46;;;;;;;5.45;3.30;;;1.80;99.90;;;;;;4962913;28;20039;-80
2023/12/08 08:39:14;;;;;;;2.30;2.10;;;1.90;99.90;;;;;;4961227;28;20488;-80
2023/12/08 08:41:44;;;;;;;1.63;1.52;;;1.90;99.90;;;;;;4970429;28;20047;-80
2023/12/08 08:44:11;;;;;;;3.63;3.33;;;1.90;99.90;;;;;;4968213;28;20051;-80
2023/12/08 08:46:39;;;;;;;3.78;2.17;;;2.00;99.90;;;;;;4967671;28;20043;-80
2023/12/08 08:49:06;;;;;;;2.15;1.95;;;2.00;99.90;;;;;;4960694;28;20039;-80
2023/12/08 08:51:32;;;;;;;1.42;1.33;;;2.00;99.90;;;;;;4967397;28;20051;-80
2023/12/08 08:53:58;;;;;;;2.20;2.08;;;2.00;99.90;;;;;;4968221;28;20024;-80
2023/12/08 08:56:24;;;;;;;0.70;0.70;;;2.00;99.90;;;;;;4965106;28;20046;-80
2023/12/08 08:58:50;;;;;;;1.80;1.70;;;2.00;99.90;;;;;;4962271;28;20046;-80
2023/12/08 09:01:17;;;;;;;1.13;1.05;;;2.10;99.90;;;;;;4957164;28;20039;-80
2023/12/08 09:03:43;;;;;;;3.47;1.30;;;2.10;99.90;;;;;;4968086;28;20027;-79
2023/12/08 09:06:09;;;;;;;3.88;2.00;;;2.10;99.90;;;;;;4967305;28;20039;-80
2023/12/08 09:08:35;;;;;;;1.30;1.15;;;2.10;99.90;;;;;;4965556;28;20046;-80
2023/12/08 09:11:02;;;;;;;10.18;3.38;;;2.20;99.90;;;;;;4960683;28;20030;-80
2023/12/08 09:13:31;;;;;;;2.03;1.13;;;2.20;99.90;;;;;;4967626;28;20030;-80
2023/12/08 09:15:58;;;;;;;12.38;4.57;;;2.30;99.90;;;;;;4966515;28;20041;-80
2023/12/08 09:18:24;;;;;;;1.67;1.58;;;2.30;99.90;;;;;;4966562;28;20097;-81
2023/12/08 09:20:51;;;;;;;10.85;2.38;;;2.30;99.90;;;;;;4964967;28;20054;-81
2023/12/08 09:23:17;;;;;;;4.47;2.63;;;2.40;99.90;;;;;;4954035;28;20488;-81
2023/12/08 09:25:43;;;;;;;3.88;3.50;;;2.40;99.90;;;;;;4970329;28;20035;-81
2023/12/08 09:28:09;;;;;;;3.17;2.88;;;2.50;99.90;;;;;;4972747;28;20062;-81
2023/12/08 09:30:36;;;;;;;2.42;2.22;;;2.50;99.90;;;;;;4970833;28;20039;-81
2023/12/08 09:33:02;;;;;;;3.63;2.70;;;2.50;99.90;;;;;;4953461;28;20396;-81
2023/12/08 09:35:29;;;;;;;2.47;2.28;;;2.50;99.90;;;;;;4969002;28;20031;-81
2023/12/08 09:37:55;;;;;;;4.40;2.75;;;2.60;99.90;;;;;;4949868;28;20035;-81
2023/12/08 09:40:23;;;;;;;7.78;6.88;;;2.60;99.90;;;;;;4944369;28;20058;-80
2023/12/08 09:42:57;;;;;;;8.40;5.40;;;2.60;99.90;;;;;;4957353;28;20045;-81
2023/12/08 09:45:24;;;;;;;4.47;4.00;;;2.70;99.90;;;;;;4967020;28;20038;-80
2023/12/08 09:47:54;;;;;;;3.85;3.63;;;2.70;99.90;;;;;;4945340;28;20060;-79
2023/12/08 09:50:21;;;;;;;1.55;1.45;;;2.70;99.90;;;;;;4927498;29;20393;-81
2023/12/08 09:52:48;;;;;;;4.30;1.98;;;2.70;99.90;;;;;;4940553;29;20044;-80
2023/12/08 09:55:15;;;;;;;2.63;2.42;;;2.70;99.90;;;;;;4926322;29;20382;-80
2023/12/08 09:57:45;;;;;;;2.92;2.72;;;2.70;99.90;;;;;;4928749;29;20047;-80
2023/12/08 10:00:13;;;;;;;13.05;4.20;;;2.80;99.90;;;;;;4927236;29;20031;-81
2023/12/08 10:02:42;;;;;;;4.22;3.83;;;2.80;99.90;;;;;;4920864;29;20462;-82
2023/12/08 10:05:12;;;;;;;1.63;1.52;;;2.80;99.90;;;;;;4921638;29;20048;-80
2023/12/08 10:07:43;;;;;;;3.90;2.25;;;2.80;99.90;;;;;;4941423;29;20032;-82
2023/12/08 10:10:12;;;;;;;2.22;2.03;;;2.90;99.90;;;;;;4928835;29;20033;-80
2023/12/08 10:12:40;;;;;;;1.80;1.70;;;2.90;99.90;;;;;;4940362;29;20533;-81
2023/12/08 10:15:11;;;;;;;6.43;3.22;;;3.00;99.90;;;;;;4919775;29;20039;-82
2023/12/08 10:17:49;;;;;;;2.42;2.25;;;3.00;99.90;;;;;;4927703;29;20043;-82
2023/12/08 10:20:16;;;;;;;2.60;2.50;;;3.00;99.90;;;;;;4943205;29;20043;-83
2023/12/08 10:22:47;;;;;;;6.63;3.58;;;3.00;99.90;;;;;;4940059;29;20047;-83
2023/12/08 10:25:19;;;;;;;4.00;3.70;;;3.10;99.90;;;;;;4937447;28;20047;-82
2023/12/08 10:27:50;;;;;;;5.63;3.78;;;3.10;99.90;;;;;;4925295;29;20044;-83
2023/12/08 10:30:17;;;;;;;;;;;3.20;99.90;;;;;;4927823;29;20044;-83
2023/12/08 10:32:44;;;;;;;3.15;2.97;;;3.30;99.90;;;;;;4924476;29;20010;-83
2023/12/08 10:35:11;;;;;;;2.45;1.52;;;3.20;99.90;;;;;;4919258;29;20047;-83
2023/12/08 10:37:41;;;;;;;5.50;5.05;;;3.30;99.90;;;;;;4923833;29;20125;-81
2023/12/08 10:40:10;;;;;;;2.40;2.00;;;3.20;99.90;;;;;;4939986;29;20048;-81
2023/12/08 10:42:37;;;;;;;3.92;3.58;;;3.30;99.90;;;;;;4927301;29;20056;-81
2023/12/08 10:45:11;;;;;;;4.85;4.35;;;3.30;99.90;;;;;;4925360;29;20052;-81
2023/12/08 10:47:42;;;;;;;2.80;2.42;;;3.30;99.90;;;;;;4922948;29;20062;-81
2023/12/08 10:50:09;;;;;;;4.15;3.03;;;3.30;99.90;;;;;;4930983;29;20032;-81
2023/12/08 10:52:40;;;;;;;8.93;3.88;;;3.30;99.90;;;;;;4930387;29;20070;-80
2023/12/08 10:55:07;;;;;;;2.13;2.03;;;3.30;99.90;;;;;;4908146;29;20055;-80
2023/12/08 10:57:36;;;;;;;7.65;6.25;;;3.40;99.90;;;;;;4923150;29;20067;-80
2023/12/08 11:00:17;;;;;;;9.43;5.53;;;3.40;99.90;;;;;;4926445;29;20039;-81
2023/12/08 11:02:47;;;;;;;1.75;1.65;;;3.40;99.90;;;;;;4940636;29;20058;-81
2023/12/08 11:05:25;;;;;;;5.15;4.75;;;3.40;99.90;;;;;;4938805;29;20044;-79
2023/12/08 11:07:53;;;;;;;2.55;1.83;;;3.40;99.90;;;;;;4921547;29;20052;-79
2023/12/08 11:10:22;;;;;;;4.18;3.78;;;3.40;99.90;;;;;;4928148;29;20051;-79
2023/12/08 11:13:01;;;;;;;4.38;4.07;;;3.50;99.90;;;;;;4926193;29;20055;-80
2023/12/08 11:15:33;;;;;;;3.38;3.08;;;3.50;99.90;;;;;;4938877;29;20108;-80
2023/12/08 11:18:17;;;;;;;4.15;3.75;;;3.50;99.90;;;;;;4925798;29;20047;-80
2023/12/08 11:20:43;;;;;;;6.13;3.45;;;3.60;99.90;;;;;;4923838;29;20031;-79
2023/12/08 11:23:11;;;;;;;2.30;2.10;;;3.60;99.90;;;;;;4925379;29;20048;-79
2023/12/08 11:25:57;;;;;;;1.60;1.50;;;3.60;99.90;;;;;;4916772;29;20036;-80
2023/12/08 11:28:30;;;;;;;3.30;3.00;;;3.60;99.90;;;;;;4908055;29;20028;-80
2023/12/08 11:31:16;;;;;;;7.93;6.05;;;3.70;99.90;;;;;;4923551;29;20040;-79
2023/12/08 11:34:27;;;;;;;3.80;3.60;;;3.70;99.90;;;;;;4940306;29;20413;-79
2023/12/08 11:36:55;;;;;;;5.25;4.80;;;3.70;99.90;;;;;;4940250;29;20047;-79
2023/12/08 11:39:40;;;;;;;3.45;3.05;;;3.70;99.90;;;;;;4922925;29;20114;-79
2023/12/08 11:42:11;;;;;;;5.32;4.43;;;3.80;99.90;;;;;;4926399;29;20036;-79
2023/12/08 11:44:42;;;;;;;5.90;4.53;;;3.80;99.90;;;;;;4925003;29;20043;-79
2023/12/08 11:47:10;;;;;;;4.43;3.65;;;3.80;99.90;;;;;;4954116;28;20078;-79
2023/12/08 11:49:38;;;;;;;2.20;2.00;;;3.70;99.90;;;;;;4959993;28;20038;-79
2023/12/08 11:52:20;;;;;;;3.22;2.88;;;3.80;99.90;;;;;;4940043;28;20031;-79
2023/12/08 11:55:24;;;;;;;1.70;1.60;;;3.80;99.90;;;;;;4964201;28;20043;-78
2023/12/08 11:58:06;;;;;;;6.57;5.75;;;3.80;99.90;;;;;;4944893;28;20521;-79
2023/12/08 12:00:34;;;;;;;2.63;2.42;;;3.90;99.90;;;;;;4949389;28;20046;-79
2023/12/08 12:03:02;;;;;;;3.40;3.10;;;3.90;99.90;;;;;;4951789;28;20515;-79
2023/12/08 12:05:29;;;;;;;2.63;2.47;;;3.90;99.90;;;;;;4964408;28;20035;-78
2023/12/08 12:07:56;;;;;;;2.17;2.00;;;3.90;99.90;;;;;;4964981;28;20069;-80
2023/12/08 12:10:27;;;;;;;3.05;2.75;;;3.90;99.90;;;;;;4964421;28;20050;-80
2023/12/08 12:12:59;;;;;;;14.88;3.05;;;3.90;99.90;;;;;;4961150;28;20054;-78
2023/12/08 12:15:25;;;;;;;1.98;1.88;;;3.90;99.90;;;;;;4961020;28;20039;-78
2023/12/08 12:17:52;;;;;;;3.38;3.15;;;3.90;99.90;;;;;;4964852;28;20039;-78
2023/12/08 12:20:18;;;;;;;1.52;1.42;;;3.90;99.90;;;;;;4961700;28;20476;-80
2023/12/08 12:22:45;;;;;;;4.38;1.77;;;3.90;99.90;;;;;;4962937;28;20042;-78
2023/12/08 12:25:11;;;;;;;5.63;4.95;;;4.00;99.90;;;;;;4960482;28;20051;-78
2023/12/08 12:27:41;;;;;;;4.10;3.35;;;4.00;99.90;;;;;;4965770;28;20480;-78
2023/12/08 12:30:09;;;;;;;7.57;5.30;;;4.00;99.90;;;;;;4964226;28;20547;-78
2023/12/08 12:32:39;;;;;;;4.65;3.92;;;4.00;99.90;;;;;;4963068;28;20039;-78
2023/12/08 12:35:07;;;;;;;3.50;3.30;;;3.90;99.90;;;;;;4959590;28;20045;-78
2023/12/08 12:37:34;;;;;;;3.67;3.42;;;4.00;99.90;;;;;;4964449;28;20030;-78
2023/12/08 12:40:00;;;;;;;8.55;7.85;;;4.00;99.90;;;;;;4962377;28;20039;-78
2023/12/08 12:42:27;;;;;;;6.72;5.47;;;3.90;99.90;;;;;;4966038;28;20038;-78
2023/12/08 12:44:53;;;;;;;11.05;9.10;;;3.90;99.90;;;;;;4963758;28;20047;-78
2023/12/08 12:47:26;;;;;;;19.33;9.20;;;4.00;99.90;;;;;;4964287;28;20065;-78
2023/12/08 12:50:04;;;;;;;2.80;2.20;;;4.00;99.90;;;;;;4967700;28;20461;-78
2023/12/08 12:52:32;;;;;;;8.52;4.97;;;4.00;99.90;;;;;;4967213;28;20038;-78
2023/12/08 12:54:59;;;;;;;3.13;2.92;;;4.00;99.90;;;;;;4966919;28;20027;-78
2023/12/08 12:57:45;;;;;;;4.55;2.92;;;4.00;99.90;;;;;;4945804;28;20054;-78
2023/12/08 13:00:12;;;;;;;6.35;4.50;;;4.00;99.90;;;;;;4969010;28;20046;-78